createdAt,value
2017-05-20T00:00:00.993Z,0
2017-05-20T00:01:01.021Z,0
2017-05-20T00:02:01.052Z,0
2017-05-20T00:03:01.376Z,0
2017-05-20T00:04:15.724Z,0
2017-05-20T00:05:01.447Z,0
2017-05-20T00:06:01.454Z,0
2017-05-20T00:07:00.882Z,0
2017-05-20T00:08:01.210Z,0
2017-05-20T00:10:01.260Z,0
2017-05-20T00:11:01.275Z,0
2017-05-20T00:12:01.319Z,0
2017-05-20T00:13:01.632Z,0
2017-05-20T00:14:01.664Z,0
2017-05-20T00:15:01.695Z,0
2017-05-20T00:16:01.421Z,0
2017-05-20T00:17:01.758Z,0
2017-05-20T00:18:01.771Z,0
2017-05-20T00:19:01.790Z,0
2017-05-20T00:20:16.436Z,0
2017-05-20T00:21:16.153Z,0
2017-05-20T00:22:01.566Z,0
2017-05-20T00:23:01.903Z,0
2017-05-20T00:24:01.616Z,0
2017-05-20T00:25:01.660Z,0
2017-05-20T00:26:01.979Z,0
2017-05-20T00:27:01.396Z,0
2017-05-20T00:28:01.719Z,0
2017-05-20T00:29:02.041Z,0
2017-05-20T00:30:02.077Z,0
2017-05-20T00:31:02.412Z,0
2017-05-20T00:32:02.135Z,0
2017-05-20T00:34:02.194Z,0
2017-05-20T00:35:16.832Z,0
2017-05-20T00:36:01.929Z,0
2017-05-20T00:37:02.274Z,0
2017-05-20T00:38:01.674Z,0
2017-05-20T00:39:01.696Z,0
2017-05-20T00:40:01.436Z,0
2017-05-20T00:42:17.009Z,0
2017-05-20T00:43:02.101Z,0
2017-05-20T00:44:17.063Z,0
2017-05-20T00:45:02.168Z,0
2017-05-20T00:47:02.525Z,0
2017-05-20T00:48:02.560Z,0
2017-05-20T00:49:01.970Z,0
2017-05-20T00:50:01.983Z,0
2017-05-20T00:51:02.937Z,0
2017-05-20T00:52:02.036Z,0
2017-05-20T00:53:02.678Z,0
2017-05-20T00:54:17.311Z,0
2017-05-20T00:55:02.408Z,0
2017-05-20T00:56:02.753Z,0
2017-05-20T00:57:17.088Z,0
2017-05-20T00:58:02.189Z,0
2017-05-20T00:59:02.526Z,0
2017-05-20T01:00:02.545Z,0
2017-05-20T01:01:02.254Z,0
2017-05-20T01:02:02.894Z,0
2017-05-20T01:03:02.939Z,0
2017-05-20T01:04:16.959Z,0
2017-05-20T01:05:17.608Z,0
2017-05-20T01:07:17.338Z,0
2017-05-20T01:08:02.753Z,0
2017-05-20T01:09:02.159Z,0
2017-05-20T01:10:17.116Z,0
2017-05-20T01:11:03.131Z,0
2017-05-20T01:12:02.863Z,0
2017-05-20T01:14:02.886Z,0
2017-05-20T01:15:02.914Z,0
2017-05-20T01:16:03.259Z,0
2017-05-20T01:17:02.975Z,0
2017-05-20T01:18:03.310Z,0
2017-05-20T01:19:03.333Z,0
2017-05-20T01:20:03.040Z,0
2017-05-20T01:21:03.387Z,0
2017-05-20T01:22:02.809Z,0
2017-05-20T01:23:18.344Z,0
2017-05-20T01:24:03.452Z,0
2017-05-20T01:25:03.175Z,0
2017-05-20T01:26:03.522Z,0
2017-05-20T01:27:18.144Z,0
2017-05-20T01:28:03.559Z,0
2017-05-20T01:29:03.589Z,0
2017-05-20T01:30:03.608Z,0
2017-05-20T01:31:03.642Z,0
2017-05-20T01:32:03.359Z,0
2017-05-20T01:33:03.385Z,0
2017-05-20T01:34:03.402Z,0
2017-05-20T01:35:18.341Z,0
2017-05-20T01:36:03.754Z,0
2017-05-20T01:37:03.493Z,0
2017-05-20T01:38:03.807Z,0
2017-05-20T01:39:18.155Z,0
2017-05-20T01:40:03.860Z,0
2017-05-20T01:41:03.878Z,0
2017-05-20T01:42:03.604Z,0
2017-05-20T01:43:03.942Z,0
2017-05-20T01:44:03.667Z,0
2017-05-20T01:45:03.995Z,0
2017-05-20T01:46:03.710Z,0
2017-05-20T01:47:03.725Z,0
2017-05-20T01:48:04.069Z,0
2017-05-20T01:50:04.140Z,0
2017-05-20T01:51:04.120Z,0
2017-05-20T01:52:03.552Z,0
2017-05-20T01:53:03.883Z,0
2017-05-20T01:54:03.906Z,0
2017-05-20T01:55:18.851Z,0
2017-05-20T01:56:03.345Z,0
2017-05-20T01:57:04.286Z,0
2017-05-20T01:58:04.012Z,0
2017-05-20T01:59:04.334Z,0
2017-05-20T02:00:04.396Z,0
2017-05-20T02:01:04.460Z,0
2017-05-20T02:02:04.099Z,0
2017-05-20T02:03:04.436Z,0
2017-05-20T02:04:04.169Z,0
2017-05-20T02:05:04.174Z,0
2017-05-20T02:06:04.210Z,0
2017-05-20T02:07:03.927Z,0
2017-05-20T02:08:04.251Z,0
2017-05-20T02:09:04.575Z,0
2017-05-20T02:10:18.928Z,0
2017-05-20T02:11:04.346Z,0
2017-05-20T02:12:04.667Z,0
2017-05-20T02:13:04.677Z,0
2017-05-20T02:14:19.339Z,0
2017-05-20T02:16:04.465Z,0
2017-05-20T02:18:04.517Z,0
2017-05-20T02:19:04.537Z,0
2017-05-20T02:20:04.562Z,0
2017-05-20T02:21:04.873Z,0
2017-05-20T02:22:04.619Z,0
2017-05-20T02:24:04.652Z,0
2017-05-20T02:25:04.682Z,0
2017-05-20T02:26:04.722Z,0
2017-05-20T02:27:05.023Z,0
2017-05-20T02:28:05.081Z,0
2017-05-20T02:29:05.098Z,0
2017-05-20T02:30:05.160Z,0
2017-05-20T02:31:04.833Z,0
2017-05-20T02:32:04.841Z,0
2017-05-20T02:33:04.885Z,0
2017-05-20T02:34:04.607Z,0
2017-05-20T02:35:04.935Z,0
2017-05-20T02:36:05.007Z,0
2017-05-20T02:37:04.982Z,4
2017-05-20T02:38:05.003Z,4
2017-05-20T02:39:05.025Z,0
2017-05-20T02:40:05.065Z,0
2017-05-20T02:41:20.000Z,4
2017-05-20T02:42:20.032Z,4
2017-05-20T02:43:04.838Z,4
2017-05-20T02:44:04.857Z,4
2017-05-20T02:45:05.470Z,4
2017-05-20T02:46:05.502Z,4
2017-05-20T02:47:05.518Z,4
2017-05-20T02:48:05.552Z,8
2017-05-20T02:49:04.963Z,4
2017-05-20T02:50:05.308Z,4
2017-05-20T02:51:05.619Z,8
2017-05-20T02:52:05.658Z,8
2017-05-20T02:53:05.385Z,8
2017-05-20T02:54:05.712Z,12
2017-05-20T02:55:05.122Z,12
2017-05-20T02:56:05.445Z,12
2017-05-20T02:57:05.472Z,8
2017-05-20T02:58:20.111Z,12
2017-05-20T02:59:05.522Z,12
2017-05-20T03:00:05.544Z,12
2017-05-20T03:01:05.265Z,16
2017-05-20T03:02:05.608Z,20
2017-05-20T03:03:05.632Z,16
2017-05-20T03:04:20.266Z,20
2017-05-20T03:05:05.365Z,20
2017-05-20T03:06:05.756Z,24
2017-05-20T03:07:05.721Z,24
2017-05-20T03:08:05.736Z,28
2017-05-20T03:09:06.084Z,28
2017-05-20T03:10:05.498Z,32
2017-05-20T03:11:06.139Z,32
2017-05-20T03:12:05.836Z,32
2017-05-20T03:13:06.179Z,36
2017-05-20T03:15:06.222Z,40
2017-05-20T03:16:06.244Z,40
2017-05-20T03:17:06.279Z,40
2017-05-20T03:18:05.987Z,40
2017-05-20T03:20:20.957Z,44
2017-05-20T03:21:06.066Z,44
2017-05-20T03:22:06.108Z,48
2017-05-20T03:23:20.734Z,48
2017-05-20T03:24:06.148Z,52
2017-05-20T03:26:21.098Z,56
2017-05-20T03:27:06.526Z,60
2017-05-20T03:28:06.241Z,60
2017-05-20T03:29:06.583Z,60
2017-05-20T03:30:21.197Z,64
2017-05-20T03:31:06.633Z,64
2017-05-20T03:32:06.650Z,64
2017-05-20T03:33:06.367Z,68
2017-05-20T03:34:06.087Z,68
2017-05-20T03:35:21.329Z,72
2017-05-20T03:36:06.425Z,76
2017-05-20T03:38:06.796Z,68
2017-05-20T03:39:06.809Z,72
2017-05-20T03:41:06.567Z,76
2017-05-20T03:43:06.921Z,80
2017-05-20T03:44:06.934Z,80
2017-05-20T03:45:21.573Z,92
2017-05-20T03:46:07.003Z,92
2017-05-20T03:47:07.015Z,92
2017-05-20T03:48:07.049Z,92
2017-05-20T03:49:07.052Z,88
2017-05-20T03:50:21.711Z,88
2017-05-20T03:51:07.102Z,92
2017-05-20T03:52:07.145Z,92
2017-05-20T03:53:07.167Z,92
2017-05-20T03:54:06.883Z,92
2017-05-20T03:55:21.819Z,100
2017-05-20T03:56:07.228Z,100
2017-05-20T03:57:21.862Z,108
2017-05-20T03:58:07.299Z,112
2017-05-20T03:59:07.303Z,124
2017-05-20T04:00:07.333Z,132
2017-05-20T04:01:07.365Z,144
2017-05-20T04:02:07.382Z,144
2017-05-20T04:03:07.110Z,156
2017-05-20T04:04:07.133Z,144
2017-05-20T04:05:22.066Z,156
2017-05-20T04:06:06.881Z,172
2017-05-20T04:07:07.198Z,172
2017-05-20T04:08:07.518Z,168
2017-05-20T04:09:07.551Z,164
2017-05-20T04:10:07.582Z,164
2017-05-20T04:11:07.900Z,164
2017-05-20T04:12:22.240Z,164
2017-05-20T04:13:07.654Z,160
2017-05-20T04:14:07.689Z,168
2017-05-20T04:15:07.707Z,176
2017-05-20T04:16:07.413Z,208
2017-05-20T04:17:22.374Z,220
2017-05-20T04:18:07.479Z,228
2017-05-20T04:19:07.813Z,240
2017-05-20T04:20:07.819Z,252
2017-05-20T04:21:07.831Z,268
2017-05-20T04:22:07.869Z,280
2017-05-20T04:23:22.201Z,280
2017-05-20T04:24:07.916Z,284
2017-05-20T04:25:07.964Z,320
2017-05-20T04:26:07.963Z,348
2017-05-20T04:27:08.006Z,364
2017-05-20T04:28:08.023Z,368
2017-05-20T04:29:08.050Z,392
2017-05-20T04:30:22.682Z,488
2017-05-20T04:31:08.088Z,532
2017-05-20T04:32:08.120Z,560
2017-05-20T04:33:22.752Z,644
2017-05-20T04:34:08.148Z,664
2017-05-20T04:36:08.209Z,684
2017-05-20T04:37:07.937Z,704
2017-05-20T04:38:08.258Z,736
2017-05-20T04:39:07.987Z,812
2017-05-20T04:40:08.007Z,820
2017-05-20T04:41:08.340Z,836
2017-05-20T04:42:22.371Z,816
2017-05-20T04:43:08.400Z,824
2017-05-20T04:44:22.717Z,836
2017-05-20T04:45:22.745Z,848
2017-05-20T04:46:08.139Z,788
2017-05-20T04:47:08.189Z,788
2017-05-20T04:48:22.817Z,732
2017-05-20T04:49:23.139Z,716
2017-05-20T04:50:07.947Z,736
2017-05-20T04:51:08.278Z,724
2017-05-20T04:52:08.311Z,700
2017-05-20T04:53:23.240Z,724
2017-05-20T04:54:23.276Z,572
2017-05-20T04:55:08.369Z,508
2017-05-20T04:56:23.321Z,452
2017-05-20T04:57:08.419Z,432
2017-05-20T04:58:08.453Z,408
2017-05-20T05:00:08.502Z,384
2017-05-20T05:01:08.221Z,364
2017-05-20T05:02:08.841Z,384
2017-05-20T05:03:08.569Z,540
2017-05-20T05:04:08.595Z,904
2017-05-20T05:05:23.531Z,1248
2017-05-20T05:06:08.644Z,1408
2017-05-20T05:07:23.323Z,1364
2017-05-20T05:08:08.372Z,1244
2017-05-20T05:09:08.702Z,1160
2017-05-20T05:10:23.358Z,1156
2017-05-20T05:11:08.759Z,1164
2017-05-20T05:12:08.783Z,1052
2017-05-20T05:13:08.808Z,1016
2017-05-20T05:14:23.452Z,980
2017-05-20T05:15:09.209Z,972
2017-05-20T05:16:08.883Z,1216
2017-05-20T05:17:09.218Z,1096
2017-05-20T05:18:08.323Z,1508
2017-05-20T05:19:08.952Z,1480
2017-05-20T05:20:23.897Z,1436
2017-05-20T05:21:08.701Z,1324
2017-05-20T05:22:09.016Z,1192
2017-05-20T05:24:09.387Z,1200
2017-05-20T05:25:09.404Z,988
2017-05-20T05:26:08.817Z,880
2017-05-20T05:27:08.845Z,796
2017-05-20T05:28:23.814Z,1040
2017-05-20T05:29:09.507Z,976
2017-05-20T05:30:09.561Z,1180
2017-05-20T05:31:09.542Z,1208
2017-05-20T05:32:09.574Z,1216
2017-05-20T05:33:09.619Z,1524
2017-05-20T05:34:09.624Z,1912
2017-05-20T05:35:09.646Z,2328
2017-05-20T05:36:09.064Z,2204
2017-05-20T05:37:09.700Z,2424
2017-05-20T05:38:09.725Z,2592
2017-05-20T05:39:24.371Z,2460
2017-05-20T05:40:09.452Z,2332
2017-05-20T05:41:09.490Z,2572
2017-05-20T05:42:09.825Z,2396
2017-05-20T05:43:09.842Z,2224
2017-05-20T05:44:09.862Z,2440
2017-05-20T05:45:09.899Z,2908
2017-05-20T05:46:09.912Z,2368
2017-05-20T05:47:09.952Z,2672
2017-05-20T05:48:09.969Z,3072
2017-05-20T05:50:10.008Z,3732
2017-05-20T05:51:24.655Z,3536
2017-05-20T05:52:24.690Z,3840
2017-05-20T05:53:10.094Z,3308
2017-05-20T05:54:10.110Z,2780
2017-05-20T05:55:24.140Z,3076
2017-05-20T05:56:09.845Z,3184
2017-05-20T05:57:10.193Z,3180
2017-05-20T05:58:09.914Z,2880
2017-05-20T06:00:09.954Z,3052
2017-05-20T06:01:09.978Z,4180
2017-05-20T06:02:10.006Z,4904
2017-05-20T06:03:10.025Z,5780
2017-05-20T06:04:10.060Z,7492
2017-05-20T06:05:10.387Z,5264
2017-05-20T06:06:25.021Z,3932
2017-05-20T06:07:10.137Z,3752
2017-05-20T06:08:25.064Z,3636
2017-05-20T06:09:10.485Z,3496
2017-05-20T06:10:10.209Z,3716
2017-05-20T06:11:10.570Z,3832
2017-05-20T06:12:09.953Z,3200
2017-05-20T06:13:10.277Z,2772
2017-05-20T06:14:10.596Z,2560
2017-05-20T06:17:10.672Z,3268
2017-05-20T06:18:10.093Z,3320
2017-05-20T06:19:10.711Z,3980
2017-05-20T06:20:10.754Z,4092
2017-05-20T06:22:10.797Z,4036
2017-05-20T06:23:10.827Z,3744
2017-05-20T06:24:25.464Z,3796
2017-05-20T06:25:10.579Z,3868
2017-05-20T06:26:10.905Z,3384
2017-05-20T06:27:10.921Z,2912
2017-05-20T06:28:25.570Z,2596
2017-05-20T06:29:10.961Z,2528
2017-05-20T06:30:10.425Z,2496
2017-05-20T06:31:10.735Z,2640
2017-05-20T06:32:11.040Z,2536
2017-05-20T06:33:25.675Z,2356
2017-05-20T06:34:11.103Z,2428
2017-05-20T06:35:10.827Z,2492
2017-05-20T06:36:10.549Z,2572
2017-05-20T06:37:10.865Z,2740
2017-05-20T06:38:10.900Z,2900
2017-05-20T06:39:10.921Z,3124
2017-05-20T06:40:25.869Z,4504
2017-05-20T06:41:10.663Z,4416
2017-05-20T06:42:11.296Z,4608
2017-05-20T06:43:11.317Z,5884
2017-05-20T06:44:11.341Z,4800
2017-05-20T06:45:11.378Z,4116
2017-05-20T06:46:11.395Z,3824
2017-05-20T06:47:11.431Z,3732
2017-05-20T06:48:11.448Z,3532
2017-05-20T06:49:11.155Z,3352
2017-05-20T06:50:11.195Z,3308
2017-05-20T06:51:11.209Z,3428
2017-05-20T06:52:25.847Z,3508
2017-05-20T06:53:11.565Z,3492
2017-05-20T06:54:11.282Z,3840
2017-05-20T06:55:25.922Z,4820
2017-05-20T06:56:25.947Z,4496
2017-05-20T06:57:11.357Z,4688
2017-05-20T06:58:11.395Z,4448
2017-05-20T06:59:11.725Z,4724
2017-05-20T07:00:26.040Z,4516
2017-05-20T07:01:11.774Z,4652
2017-05-20T07:02:11.170Z,4640
2017-05-20T07:03:26.131Z,4580
2017-05-20T07:04:11.541Z,4360
2017-05-20T07:05:11.855Z,4084
2017-05-20T07:06:11.595Z,4388
2017-05-20T07:07:11.685Z,5128
2017-05-20T07:08:26.542Z,5136
2017-05-20T07:09:11.656Z,5780
2017-05-20T07:10:11.998Z,6120
2017-05-20T07:11:11.715Z,5380
2017-05-20T07:12:11.736Z,6320
2017-05-20T07:13:12.061Z,6636
2017-05-20T07:14:11.791Z,5724
2017-05-20T07:15:11.495Z,5716
2017-05-20T07:16:11.525Z,5780
2017-05-20T07:17:26.172Z,5704
2017-05-20T07:18:11.883Z,7628
2017-05-20T07:19:11.904Z,6236
2017-05-20T07:20:12.242Z,5320
2017-05-20T07:21:12.259Z,5112
2017-05-20T07:22:11.986Z,5020
2017-05-20T07:23:12.319Z,4820
2017-05-20T07:24:26.946Z,4368
2017-05-20T07:25:12.358Z,4220
2017-05-20T07:26:12.401Z,4012
2017-05-20T07:27:27.031Z,3964
2017-05-20T07:29:12.160Z,4168
2017-05-20T07:30:12.188Z,4280
2017-05-20T07:33:12.255Z,6504
2017-05-20T07:34:12.574Z,9408
2017-05-20T07:35:12.004Z,11648
2017-05-20T07:36:12.336Z,9072
2017-05-20T07:37:27.264Z,8856
2017-05-20T07:38:27.300Z,8288
2017-05-20T07:39:12.124Z,8080
2017-05-20T07:40:27.346Z,8796
2017-05-20T07:41:12.761Z,9364
2017-05-20T07:42:12.170Z,9128
2017-05-20T07:43:27.442Z,9208
2017-05-20T07:44:12.237Z,8096
2017-05-20T07:45:12.865Z,8444
2017-05-20T07:46:12.893Z,9320
2017-05-20T07:47:12.899Z,8852
2017-05-20T07:48:12.932Z,8848
2017-05-20T07:49:12.955Z,11524
2017-05-20T07:50:12.697Z,9080
2017-05-20T07:51:13.019Z,9216
2017-05-20T07:52:12.727Z,10440
2017-05-20T07:53:13.054Z,7944
2017-05-20T07:54:12.788Z,7420
2017-05-20T07:55:12.810Z,7012
2017-05-20T07:56:12.843Z,6688
2017-05-20T07:57:12.872Z,6776
2017-05-20T07:58:13.192Z,7760
2017-05-20T07:59:27.832Z,7524
2017-05-20T08:00:12.627Z,7448
2017-05-20T08:01:13.269Z,7844
2017-05-20T08:02:27.599Z,8724
2017-05-20T08:03:12.701Z,9836
2017-05-20T08:04:13.035Z,15472
2017-05-20T08:05:13.068Z,11456
2017-05-20T08:07:13.426Z,18592
2017-05-20T08:08:13.452Z,51008
2017-05-20T08:09:13.154Z,53696
2017-05-20T08:10:13.510Z,15276
2017-05-20T08:11:28.138Z,29376
2017-05-20T08:12:27.858Z,26432
2017-05-20T08:13:13.275Z,25504
2017-05-20T08:14:13.598Z,25984
2017-05-20T08:15:28.237Z,26240
2017-05-20T08:16:13.353Z,25344
2017-05-20T08:18:13.411Z,26816
2017-05-20T08:19:13.424Z,23264
2017-05-20T08:20:28.080Z,26432
2017-05-20T08:21:13.489Z,20224
2017-05-20T08:22:13.219Z,26848
2017-05-20T08:23:13.856Z,26784
2017-05-20T08:24:13.885Z,19104
2017-05-20T08:25:13.980Z,15904
2017-05-20T08:26:13.324Z,25664
2017-05-20T08:27:13.970Z,26272
2017-05-20T08:28:13.699Z,15496
2017-05-20T08:29:13.710Z,24896
2017-05-20T08:30:28.665Z,23648
2017-05-20T08:31:13.787Z,22496
2017-05-20T08:32:13.806Z,22944
2017-05-20T08:33:13.534Z,23360
2017-05-20T08:34:14.182Z,23264
2017-05-20T08:35:13.907Z,23104
2017-05-20T08:36:13.928Z,22848
2017-05-20T08:37:14.251Z,23552
2017-05-20T08:38:14.008Z,25408
2017-05-20T08:39:13.718Z,26048
2017-05-20T08:40:14.071Z,25888
2017-05-20T08:41:14.389Z,26144
2017-05-20T08:42:14.103Z,25728
2017-05-20T08:43:14.460Z,24512
2017-05-20T08:44:14.489Z,19104
2017-05-20T08:45:14.504Z,25472
2017-05-20T08:46:14.541Z,25504
2017-05-20T08:47:14.595Z,24480
2017-05-20T08:48:14.316Z,23360
2017-05-20T08:49:29.265Z,23840
2017-05-20T08:50:29.285Z,15920
2017-05-20T08:51:14.690Z,16068
2017-05-20T08:52:14.436Z,21024
2017-05-20T08:53:14.482Z,21792
2017-05-20T08:54:14.504Z,14816
2017-05-20T08:55:14.220Z,12620
2017-05-20T08:56:14.569Z,11192
2017-05-20T08:57:14.959Z,10836
2017-05-20T08:58:29.235Z,9400
2017-05-20T08:59:14.949Z,8500
2017-05-20T09:00:29.605Z,7736
2017-05-20T09:01:14.725Z,7548
2017-05-20T09:02:29.673Z,7400
2017-05-20T09:03:15.096Z,7152
2017-05-20T09:04:15.104Z,7352
2017-05-20T09:05:14.538Z,8352
2017-05-20T09:06:15.173Z,18528
2017-05-20T09:07:14.887Z,10380
2017-05-20T09:08:14.923Z,10132
2017-05-20T09:09:14.960Z,10580
2017-05-20T09:10:15.328Z,14396
2017-05-20T09:11:15.008Z,12936
2017-05-20T09:12:15.349Z,12976
2017-05-20T09:13:15.372Z,10960
2017-05-20T09:14:15.418Z,9520
2017-05-20T09:15:15.426Z,9796
2017-05-20T09:16:15.470Z,10544
2017-05-20T09:17:30.099Z,10284
2017-05-20T09:18:30.131Z,10356
2017-05-20T09:19:15.551Z,10632
2017-05-20T09:20:15.564Z,20416
2017-05-20T09:21:15.598Z,12228
2017-05-20T09:22:15.630Z,11368
2017-05-20T09:23:15.663Z,10712
2017-05-20T09:24:15.077Z,11104
2017-05-20T09:25:15.411Z,11340
2017-05-20T09:26:15.445Z,16688
2017-05-20T09:27:15.163Z,12300
2017-05-20T09:28:15.497Z,19712
2017-05-20T09:29:15.522Z,21984
2017-05-20T09:30:15.850Z,22112
2017-05-20T09:31:30.188Z,14480
2017-05-20T09:32:15.598Z,19712
2017-05-20T09:33:15.939Z,15120
2017-05-20T09:34:30.270Z,13284
2017-05-20T09:35:15.700Z,14224
2017-05-20T09:36:15.117Z,22080
2017-05-20T09:37:30.667Z,22400
2017-05-20T09:38:16.081Z,15844
2017-05-20T09:39:30.720Z,21216
2017-05-20T09:40:16.210Z,16780
2017-05-20T09:41:30.790Z,19392
2017-05-20T09:42:15.899Z,20160
2017-05-20T09:43:15.609Z,12436
2017-05-20T09:44:15.940Z,14148
2017-05-20T09:45:15.971Z,18784
2017-05-20T09:46:16.308Z,13852
2017-05-20T09:47:16.048Z,15480
2017-05-20T09:48:16.079Z,19744
2017-05-20T09:49:16.091Z,15916
2017-05-20T09:50:31.043Z,14288
2017-05-20T09:51:16.457Z,14236
2017-05-20T09:52:30.797Z,15040
2017-05-20T09:53:15.913Z,16532
2017-05-20T09:55:16.567Z,18560
2017-05-20T09:56:16.602Z,14428
2017-05-20T09:57:16.629Z,18272
2017-05-20T09:58:16.664Z,19488
2017-05-20T09:59:16.396Z,16680
2017-05-20T10:00:16.724Z,21728
2017-05-20T10:01:16.766Z,16568
2017-05-20T10:02:16.474Z,15504
2017-05-20T10:03:16.516Z,18016
2017-05-20T10:04:16.855Z,15084
2017-05-20T10:05:31.484Z,14388
2017-05-20T10:06:31.210Z,13760
2017-05-20T10:07:16.926Z,13632
2017-05-20T10:08:16.961Z,14136
2017-05-20T10:09:16.692Z,13984
2017-05-20T10:10:17.003Z,16560
2017-05-20T10:11:17.051Z,15920
2017-05-20T10:12:17.085Z,16100
2017-05-20T10:13:17.102Z,16144
2017-05-20T10:14:16.538Z,17536
2017-05-20T10:15:17.164Z,18016
2017-05-20T10:16:16.892Z,17760
2017-05-20T10:17:16.919Z,16372
2017-05-20T10:18:16.341Z,15552
2017-05-20T10:19:16.986Z,15664
2017-05-20T10:20:17.317Z,17280
2017-05-20T10:21:17.325Z,16896
2017-05-20T10:22:17.081Z,19552
2017-05-20T10:23:17.404Z,19456
2017-05-20T10:24:17.430Z,19168
2017-05-20T10:25:32.083Z,17664
2017-05-20T10:26:17.174Z,16536
2017-05-20T10:27:17.524Z,17184
2017-05-20T10:28:17.546Z,14692
2017-05-20T10:29:17.592Z,14540
2017-05-20T10:30:17.651Z,18048
2017-05-20T10:31:17.629Z,13980
2017-05-20T10:33:17.693Z,14116
2017-05-20T10:34:17.413Z,15512
2017-05-20T10:35:17.459Z,13640
2017-05-20T10:36:17.774Z,13444
2017-05-20T10:37:32.477Z,13744
2017-05-20T10:38:17.831Z,14048
2017-05-20T10:40:17.905Z,15116
2017-05-20T10:41:17.938Z,15952
2017-05-20T10:42:17.959Z,14236
2017-05-20T10:43:17.973Z,13960
2017-05-20T10:44:18.029Z,14736
2017-05-20T10:45:18.052Z,12572
2017-05-20T10:46:18.080Z,16224
2017-05-20T10:47:17.796Z,13408
2017-05-20T10:48:32.749Z,13016
2017-05-20T10:50:18.187Z,13104
2017-05-20T10:51:18.213Z,13232
2017-05-20T10:52:18.236Z,15024
2017-05-20T10:53:32.579Z,15592
2017-05-20T10:54:17.999Z,13500
2017-05-20T10:55:18.026Z,13168
2017-05-20T10:56:18.064Z,13076
2017-05-20T10:57:18.078Z,13996
2017-05-20T10:58:17.818Z,13104
2017-05-20T10:59:33.074Z,12672
2017-05-20T11:00:18.480Z,13072
2017-05-20T11:01:17.901Z,15256
2017-05-20T11:03:17.958Z,15736
2017-05-20T11:04:18.600Z,11780
2017-05-20T11:05:18.628Z,11684
2017-05-20T11:06:33.258Z,11588
2017-05-20T11:07:18.372Z,15624
2017-05-20T11:08:18.712Z,15752
2017-05-20T11:09:33.356Z,11908
2017-05-20T11:10:18.776Z,15548
2017-05-20T11:12:18.832Z,11300
2017-05-20T11:13:18.841Z,11560
2017-05-20T11:16:18.947Z,12240
2017-05-20T11:17:18.977Z,14720
2017-05-20T11:18:19.002Z,12628
2017-05-20T11:19:19.035Z,11344
2017-05-20T11:21:18.794Z,10984
2017-05-20T11:22:18.799Z,10068
2017-05-20T11:23:19.146Z,9424
2017-05-20T11:24:19.173Z,12952
2017-05-20T11:25:33.809Z,11752
2017-05-20T11:26:33.848Z,13904
2017-05-20T11:28:18.996Z,13992
2017-05-20T11:29:19.319Z,11168
2017-05-20T11:30:19.370Z,11136
2017-05-20T11:31:19.405Z,11096
2017-05-20T11:32:19.391Z,11104
2017-05-20T11:33:19.419Z,11132
2017-05-20T11:35:19.495Z,10532
2017-05-20T11:36:19.229Z,10184
2017-05-20T11:37:19.560Z,9640
2017-05-20T11:38:19.265Z,9304
2017-05-20T11:39:19.301Z,9068
2017-05-20T11:40:34.251Z,8952
2017-05-20T11:42:19.398Z,9056
2017-05-20T11:43:19.104Z,11452
2017-05-20T11:44:19.151Z,12160
2017-05-20T11:45:19.775Z,12464
2017-05-20T11:46:19.193Z,10112
2017-05-20T11:47:34.458Z,9936
2017-05-20T11:48:34.467Z,9792
2017-05-20T11:49:19.894Z,9804
2017-05-20T11:50:19.927Z,10068
2017-05-20T11:51:19.943Z,10280
2017-05-20T11:52:19.978Z,10436
2017-05-20T11:53:19.709Z,10708
2017-05-20T11:54:20.042Z,10308
2017-05-20T11:55:20.059Z,9956
2017-05-20T11:56:20.086Z,10176
2017-05-20T11:57:20.123Z,9920
2017-05-20T11:58:34.768Z,10772
2017-05-20T11:59:34.805Z,11068
2017-05-20T12:00:34.817Z,10636
2017-05-20T12:01:20.228Z,11792
2017-05-20T12:02:20.291Z,11924
2017-05-20T12:03:34.893Z,12112
2017-05-20T12:04:34.922Z,12136
2017-05-20T12:05:20.365Z,10540
2017-05-20T12:06:20.370Z,10232
2017-05-20T12:07:20.405Z,10884
2017-05-20T12:08:20.430Z,12108
2017-05-20T12:09:20.459Z,12060
2017-05-20T12:10:20.492Z,11700
2017-05-20T12:11:35.134Z,11012
2017-05-20T12:12:35.155Z,8892
2017-05-20T12:13:20.284Z,8920
2017-05-20T12:14:20.617Z,9004
2017-05-20T12:15:20.332Z,10560
2017-05-20T12:16:20.350Z,9136
2017-05-20T12:18:20.413Z,8532
2017-05-20T12:19:20.752Z,7784
2017-05-20T12:20:20.483Z,7204
2017-05-20T12:21:20.486Z,7000
2017-05-20T12:22:20.526Z,6864
2017-05-20T12:23:20.559Z,6632
2017-05-20T12:24:20.598Z,6292
2017-05-20T12:25:20.620Z,6072
2017-05-20T12:26:20.951Z,5932
2017-05-20T12:27:20.963Z,5888
2017-05-20T12:28:35.625Z,6032
2017-05-20T12:29:21.040Z,6188
2017-05-20T12:30:21.069Z,6840
2017-05-20T12:33:21.139Z,8020
2017-05-20T12:34:20.861Z,8060
2017-05-20T12:35:21.202Z,7944
2017-05-20T12:36:21.233Z,7492
2017-05-20T12:37:21.258Z,7068
2017-05-20T12:38:21.288Z,6860
2017-05-20T12:39:21.309Z,6616
2017-05-20T12:40:21.339Z,6348
2017-05-20T12:42:21.086Z,6288
2017-05-20T12:43:21.425Z,6600
2017-05-20T12:44:36.073Z,6852
2017-05-20T12:45:21.546Z,6964
2017-05-20T12:46:21.514Z,7196
2017-05-20T12:47:21.535Z,7516
2017-05-20T12:48:21.579Z,7768
2017-05-20T12:49:21.303Z,7644
2017-05-20T12:50:21.324Z,7292
2017-05-20T12:51:21.354Z,7056
2017-05-20T12:52:36.345Z,6908
2017-05-20T12:53:21.694Z,6912
2017-05-20T12:54:21.442Z,6924
2017-05-20T12:55:21.450Z,6680
2017-05-20T12:56:21.481Z,6220
2017-05-20T12:57:21.811Z,5552
2017-05-20T12:58:21.848Z,5008
2017-05-20T12:59:36.551Z,4536
2017-05-20T13:00:36.520Z,4380
2017-05-20T13:01:21.623Z,4356
2017-05-20T13:02:36.580Z,4492
2017-05-20T13:03:21.977Z,4680
2017-05-20T13:04:22.022Z,4932
2017-05-20T13:05:36.662Z,5216
2017-05-20T13:06:22.053Z,5524
2017-05-20T13:07:22.078Z,6216
2017-05-20T13:08:21.822Z,7060
2017-05-20T13:09:21.838Z,8748
2017-05-20T13:10:21.872Z,8168
2017-05-20T13:11:21.891Z,7808
2017-05-20T13:12:21.622Z,7192
2017-05-20T13:13:22.260Z,6632
2017-05-20T13:14:36.294Z,6064
2017-05-20T13:15:36.914Z,5728
2017-05-20T13:16:22.335Z,5544
2017-05-20T13:17:22.364Z,5440
2017-05-20T13:18:22.081Z,5496
2017-05-20T13:19:37.030Z,5832
2017-05-20T13:20:22.766Z,6028
2017-05-20T13:21:22.469Z,6272
2017-05-20T13:22:21.891Z,6632
2017-05-20T13:23:22.548Z,7000
2017-05-20T13:24:22.558Z,7348
2017-05-20T13:25:37.190Z,7688
2017-05-20T13:26:22.318Z,7872
2017-05-20T13:27:22.657Z,8244
2017-05-20T13:28:22.670Z,8780
2017-05-20T13:29:22.401Z,9328
2017-05-20T13:30:22.740Z,9692
2017-05-20T13:32:22.785Z,9140
2017-05-20T13:33:22.499Z,8856
2017-05-20T13:34:22.824Z,8904
2017-05-20T13:35:22.854Z,8956
2017-05-20T13:36:22.891Z,9028
2017-05-20T13:37:22.927Z,8840
2017-05-20T13:38:37.548Z,9260
2017-05-20T13:39:22.670Z,9316
2017-05-20T13:40:22.687Z,8672
2017-05-20T13:41:22.731Z,9436
2017-05-20T13:42:23.067Z,9048
2017-05-20T13:44:37.722Z,8852
2017-05-20T13:46:23.169Z,9076
2017-05-20T13:47:37.805Z,9260
2017-05-20T13:48:23.226Z,9336
2017-05-20T13:49:37.871Z,9948
2017-05-20T13:50:23.269Z,9740
2017-05-20T13:51:22.982Z,9808
2017-05-20T13:52:23.031Z,9928
2017-05-20T13:53:23.061Z,10380
2017-05-20T13:55:23.406Z,9640
2017-05-20T13:56:23.439Z,9656
2017-05-20T13:57:23.458Z,9784
2017-05-20T13:58:23.185Z,9880
2017-05-20T13:59:23.540Z,9928
2017-05-20T14:00:23.562Z,9820
2017-05-20T14:01:23.561Z,9656
2017-05-20T14:02:38.220Z,9652
2017-05-20T14:03:37.944Z,10052
2017-05-20T14:04:23.360Z,10364
2017-05-20T14:05:23.696Z,11600
2017-05-20T14:06:23.707Z,12088
2017-05-20T14:07:38.368Z,10796
2017-05-20T14:08:23.767Z,11844
2017-05-20T14:10:23.834Z,9716
2017-05-20T14:11:23.869Z,10140
2017-05-20T14:12:23.283Z,9720
2017-05-20T14:13:23.899Z,8868
2017-05-20T14:14:38.545Z,8188
2017-05-20T14:15:23.954Z,7724
2017-05-20T14:17:24.030Z,6072
2017-05-20T14:18:24.074Z,5652
2017-05-20T14:19:38.681Z,5188
2017-05-20T14:20:23.796Z,4936
2017-05-20T14:21:24.140Z,4704
2017-05-20T14:22:24.164Z,4560
2017-05-20T14:24:24.205Z,4472
2017-05-20T14:25:24.484Z,4440